Sligo Airport - TAF
(Terminal Area Forecast)

Issued at 22:06 UTC on Fri. 21-Jul-17

--- METARS(SA) ---

METAR EISG(SLIGO) 212200Z AUTO 09009KT CAVOK 13/10 Q1000 =

--- TAFS() ---

TAF EISG(SLIGO) 212000Z 2121/2206 06010KT 9999 SCT025 BKN035 TEMPO

2121/2123 5000 SHRA BKN010 BKN018CB BECMG 2121/2123 05008KT =

--- SIGMETS(WS) ---

IE - No VALID SIGMETS/Warnings FOR THIS AREA

--- SIGMETS Volcanic(WV) ---

IE - No VALID SIGMETS/Warnings FOR THIS AREA

--- SIGMETS(WS) ---

UK - No VALID SIGMETS/Warnings FOR THIS AREA

Sligo Airport - METARs

Latest METARs for Sligo and Donegal Airports - updated every 30 mins